Airfield :
LOGIN :

Register | Disclaimer

   EN    FR    IT 

 










Legend :    VFR   Marginal VFR   IFR   Intensive IFR   Very Intensive IFR
Visi :
Ceiling :
>= 8 km
>= 3000ft
5 to 8 km
1000 to 3000 ft
1500m to 5 km
500 to 1000 ft
800 to 1500m
200 to 500 ft
< 800m
< 200 ft
Symbols :   Thunderstorms  Fog  Heavy snow  Heavy precipitations  Wind > 20 kt
SIGMETs :     Misc.  Thunderstorms  Icing  Turbulence  Mountain Waves  Volcanic Ashes






- Airport Elevation : 39 ft
- IATA code : ANR


EBAW - Anvers / Antwerpen Deurne

CURRENT METAR :
  • 200420Z 32012G22KT 290V360 9999 FEW032 06/01 Q1020 NOSIG

EXPIRED METARs :
  • 200350Z AUTO 32010KT CAVOK 06/01 Q1019
  • 200320Z AUTO 32009KT 9999 // FEW041/// 07/02 Q1019
  • 200250Z AUTO 31009KT CAVOK 06/01 Q1019
  • 200220Z AUTO 32010KT CAVOK 06/01 Q1019
  • 200150Z AUTO 33009KT 9999 // FEW027/// 06/02 Q1018
  • 200120Z AUTO 32009KT 290V350 9999 // SCT031/// SCT038/// BKN046/// 06/02 Q1018
  • 200050Z AUTO 33009KT 9999 // SCT046/// 06/02 Q1018
  • 200020Z AUTO 34011KT 310V010 9999 -RA FEW032/// SCT037/// BKN042/// 06/02 Q1018

TAF TAF EBAW
Valid from the 20 at 03:00 until the 20 at 12:00 UTC


200210Z 2003/2012 33009KT 9999 FEW020 SCT040
PROB40
TEMPO 2009/2012 35015G25KT 4000 -SHRA BKN012TCU



MET'MAP, your aeronautical weather chart ! - Copyright ORBIFLY December 2007 - Disclaimer

ORBIFLY MET'MAP TEAM :

Programming & Development : Alexandra Zaïnal
Original concept : Baudouin d'Aumeries
Technical & hardware support : Manuel Goepfert
Assistance : Marc-Olivier Méhu




SOURCES & CREDITS :

   NOAA